METAR Data
IDs: Format: Raw Decoded Include TAF

Data at: 1953 UTC 18 Apr 2021

KGNV 181853Z 00000KT 10SM SCT044 BKN055 24/18 A2990 RMK AO2 SLP124 T02440178
KGNV 181753Z VRB05KT 10SM FEW049 23/18 A2992 RMK AO2 SLP130 60049 T02330183 10239 20183 56023
KGNV 181736Z VRB03KT 10SM FEW065 SCT075 23/19 A2991 RMK AO2 PRESFR T02330189
KGNV 181653Z 18005KT 10SM BKN007 BKN070 BKN085 21/19 A2994 RMK AO2 SLP136 T02110189
KGNV 181553Z 16005KT 10SM BKN007 BKN075 BKN090 19/18 A2996 RMK AO2 SLP142 T01940183
KGNV 181453Z 18004KT 10SM BKN009 BKN065 OVC080 19/18 A2999 RMK AO2 RAB16E52 SLP153 P0012 60049 T01890183 51007
KGNV 181451Z 17005KT 10SM -RA BKN009 BKN065 OVC080 19/18 A2999 RMK AO2 RAB16 P0012
KGNV 181436Z 17005KT 3SM -RA BR SCT009 BKN043 OVC085 19/18 A3000 RMK AO2 RAB16 P0011 T01890183
KGNV 181434Z 17003KT 2SM RA BR SCT009 BKN024 OVC085 19/18 A3000 RMK AO2 RAB16 P0010 T01890183
KGNV 181420Z 22005KT 1 3/4SM RA BR BKN007 OVC013 19/18 A3002 RMK AO2 VIS 3/4V5 RAB16 P0003 T01890178
KGNV 181353Z 18004KT 10SM BKN006 BKN039 OVC047 19/18 A2998 RMK AO2 LTG DSNT E AND SE RAE45 SLP151 P0035 T01890183
KGNV 181345Z 20005KT 10SM BKN005 BKN040 OVC049 18/18 A2999 RMK AO2 LTG DSNT E AND SE RAE45 P0034 T01830178
KGNV 181338Z 24003KT 2 1/2SM -RA BR SCT005 OVC040 18/18 A2999 RMK AO2 LTG DSNT E-S P0034 T01830178
KGNV 181330Z 00000KT 1SM +RA BR OVC042 18/18 A2997 RMK AO2 LTG DSNT SE AND S P0029 T01830178
KGNV 181323Z 27004KT 3/4SM VCTS +RA BR OVC042 18/18 A2999 RMK AO2 LTG DSNT SE-SW P0024 T01830178
KGNV 181308Z 32007KT 1SM VCTS +RA BR BKN041 BKN049 OVC110 18/18 A2998 RMK AO2 LTG DSNT SW AND W P0008 T01830178
KGNV 181301Z 36004KT 1 3/4SM RA BR FEW030 BKN050 OVC110 18/18 A2996 RMK AO2 LTG DSNT SW AND W P0001 T01830178
KGNV 181253Z 30004KT 8SM -RA BKN050 OVC110 18/18 A2997 RMK AO2 LTG DSNT E AND SW AND W RAE1157B13 SLP146 P0002 T01830178
KGNV 181245Z 35005KT 7SM -RA FEW004 BKN050 OVC110 18/18 A2995 RMK AO2 LTG DSNT E AND SW AND W RAE1157B13 P0002 T01830178
KGNV 181153Z 16003KT 9SM -RA SCT065 OVC085 18/18 A2994 RMK AO2 TSB00E15 SLP136 P0007 60007 70036 T01830178 10189 20183 50010
KGNV 181128Z 15005KT 3SM RA BR BKN070 BKN080 OVC100 18/18 A2993 RMK AO2 LTG DSNT E TSB00E15 P0005 T01830178
KGNV 181121Z 16005KT 4SM VCTS RA BR BKN070 OVC080 18/18 A2994 RMK AO2 LTG DSNT E TSB00E15 P0003 T01830178
KGNV 181106Z 25003KT 4SM -TSRA BR BKN055 OVC080 18/18 A2995 RMK AO2 LTG DSNT SW TSB00 P0002 T01830178
KGNV 181053Z 33004KT 6SM RA BR FEW017 SCT049 OVC055 19/18 A2995 RMK AO2 LTG DSNT SW RAB45 SLP138 P0000 T01890178
KGNV 180953Z AUTO 29003KT 10SM OVC060 19/18 A2992 RMK AO2 SLP131 T01890178
KGNV 180853Z AUTO 00000KT 10SM OVC065 19/18 A2991 RMK AO2 SLP126 T01890178 58004
KGNV 180753Z AUTO 19003KT 9SM BKN070 BKN085 19/18 A2990 RMK AO2 SLP124 T01890183
KGNV 180653Z AUTO 00000KT 10SM FEW047 OVC070 19/18 A2994 RMK AO2 SLP137 T01890183
KGNV 180553Z AUTO 25003KT 9SM BKN070 OVC090 19/18 A2992 RMK AO2 SLP130 60029 T01890183 10217 20189 56003
KGNV 180453Z AUTO 18003KT 9SM BKN070 BKN120 19/18 A2993 RMK AO2 SLP132 T01890183 402670161
KGNV 180353Z AUTO 10004KT 10SM OVC070 19/18 A2992 RMK AO2 SLP131 T01940183
KGNV 180253Z AUTO 00000KT 9SM FEW020 OVC060 19/18 A2993 RMK AO2 RAB0156E18 SLP133 P0002 60029 T01940183 53020
KGNV 180153Z 12004KT 10SM FEW010 OVC055 19/18 A2992 RMK AO2 PK WND 30030/0113 LTG DSNT SE AND S RAB14E35 SLP129 P0027 T01940178
KGNV 180126Z VRB05G22KT 3SM -RA BR SCT013 BKN026 OVC050 19/18 A2992 RMK AO2 PK WND 30030/0113 LTG DSNT E AND SE RAB14 P0026 T01940178
KGNV 180115Z 32012G30KT 1 1/2SM +RA SCT013 BKN022 OVC035 21/18 A2993 RMK AO2 PK WND 30030/0113 LTG DSNT E AND SE RAB14 PRESRR P0000 T02110183
KGNV 180110Z 36011G17KT 10SM FEW015 BKN024 OVC033 22/18 A2990 RMK AO2 LTG DSNT E AND SE PRESRR T02170183
KGNV 180052Z 02008KT 10SM VCTS BKN030 OVC038 22/18 A2988 RMK AO2 LTG DSNT ALQDS SLP114 T02170183
KGNV 180051Z 02008KT 10SM VCTS BKN030 OVC034 22/18 A2988 RMK AO2 LTG DSNT ALQDS
KGNV 180039Z 02007KT 10SM BKN028 OVC036 22/18 A2988 RMK AO2 LTG DSNT ALQDS T02220183
KGNV 180024Z 03008KT 10SM VCTS BKN028 BKN035 22/18 A2987 RMK AO2 LTG DSNT ALQDS T02220183
KGNV 180010Z 01007KT 10SM BKN028 OVC038 23/19 A2987 RMK AO2 LTG DSNT ALQDS T02280189
KGNV 172353Z 36005KT 10SM BKN031 BKN039 OVC085 23/19 A2987 RMK AO2 SLP113 T02280189 10267 20228 51013
KGNV 172253Z 35006KT 10SM SCT035 BKN043 BKN070 24/19 A2986 RMK AO2 LTG DSNT SE AND S SLP108 T02390189
KGNV 172234Z 01006KT 10SM SCT029 SCT035 OVC070 24/19 A2986 RMK AO2 T02390189
KGNV 172215Z 01005KT 10SM OVC029 24/19 A2986 RMK AO2 T02390189
KGNV 172153Z 34004KT 10SM BKN031 OVC045 25/19 A2986 RMK AO2 SLP108 T02500189
KGNV 172053Z VRB04KT 10SM BKN031 27/19 A2983 RMK AO2 SLP100 T02670189 58018
KGNV 171953Z 00000KT 10SM FEW031 25/18 A2985 RMK AO2 SLP105 T02500183
KGNV 171853Z 33006KT 10SM FEW025 SCT030 OVC047 25/18 A2988 RMK AO2 SLP115 T02500183
KGNV 171753Z 30005KT 10SM SCT020 BKN050 24/19 A2989 RMK AO2 SLP118 60000 T02440189 10250 20167 58011
KGNV 171740Z VRB06KT 10SM FEW015 BKN050 25/19 A2988 RMK AO2 T02500194
KGNV 171717Z 32008KT 10SM BKN015 BKN020 BKN055 24/19 A2989 RMK AO2 T02390189
KGNV 171653Z 33005KT 10SM BKN011 23/19 A2990 RMK AO2 SLP123 T02280189
KGNV 171648Z 32005KT 10SM OVC011 23/19 A2991 RMK AO2
KGNV 171553Z 00000KT 10SM OVC006 21/18 A2992 RMK AO2 SLP130 T02060183
KGNV 171512Z 17004KT 9SM OVC005 19/18 A2993 RMK AO2 T01940183
KGNV 171453Z 15009KT 10SM OVC004 20/18 A2992 RMK AO2 SLP129 60000 T02000183 50011
KGNV 171402Z 10005KT 7SM OVC004 18/17 A2991 RMK AO2 T01780167
KGNV 171353Z 06004KT 7SM OVC005 18/17 A2992 RMK AO2 RAB29E51 SLP130 P0000 T01780167
KGNV 171300Z 12004KT 9SM BKN008 OVC070 17/16 A2990 RMK AO2 CIG 004V010 T01720161
KGNV 171253Z 14006KT 9SM SCT008 OVC070 17/16 A2991 RMK AO2 SLP126 T01720161
KGNV 171235Z 12005KT 9SM FEW005 OVC070 17/16 A2991 RMK AO2 T01670161
KGNV 171201Z 10004KT 8SM SCT004 SCT075 BKN090 17/16 A2989 RMK AO2 T01670156
KGNV 171153Z 11004KT 8SM BKN004 17/16 A2988 RMK AO2 RAB03E26 SLP118 P0011 60028 70078 T01670156 10172 20161 50010
KGNV 171119Z 06010G15KT 3SM -RA BR BKN005 OVC012 16/16 A2986 RMK AO2 RAB03 P0010 T01610156
KGNV 171113Z 12007KT 1 3/4SM +RA BR BKN005 OVC014 16/16 A2988 RMK AO2 RAB03 P0004 T01610156
KGNV 171053Z 02005KT 8SM OVC005 17/16 A2989 RMK AO2 LTG DSNT SE AND S RAE20 PRESRR SLP121 P0016 T01670156
KGNV 171039Z 07005KT 8SM OVC007 17/16 A2986 RMK AO2 LTG DSNT S AND W RAE20 CIG 004V011 P0016 T01670156
KGNV 171022Z AUTO 05005KT 7SM BKN005 OVC009 17/16 A2986 RMK AO2 RAE20 P0015 T01670156
KGNV 171006Z AUTO 08005KT 2SM -RA BR OVC005 17/16 A2986 RMK AO2 VIS 3/4V5 LTG DSNT S P0001 T01670161
KGNV 170953Z AUTO 05006KT 3SM -RA BR OVC004 17/16 A2986 RMK AO2 LTG DSNT S RAB14 SLP109 P0001 T01670156
KGNV 170925Z AUTO 01007KT 3SM -RA BR BKN004 OVC008 17/16 A2986 RMK AO2 LTG DSNT SE AND S RAB14 P0000 T01670156
KGNV 170906Z AUTO 01005KT 7SM BKN008 OVC015 17/16 A2986 RMK AO2 LTG DSNT SE AND S T01720161
KGNV 170853Z AUTO 02003KT 7SM SCT008 OVC016 17/16 A2985 RMK AO2 LTG DSNT SE SLP108 60000 T01720161 51005
KGNV 170826Z AUTO 04005KT 8SM BKN009 OVC018 17/16 A2985 RMK AO2 LTG DSNT SE-SW T01670156
KGNV 170805Z AUTO 05004KT 8SM BKN010 BKN022 OVC050 17/16 A2985 RMK AO2 T01670156